Time;durP1;ratioP1;P1;durP2;ratioP2;P2;SDS_P1;SDS_P2;PMS_P1;PMS_P2;Temp;Humidity;BMP_temperature;BMP_pressure;BME280_temperature;BME280_humidity;BME280_pressure;Samples;Min_cycle;Max_cycle;Signal;HPM_P1;HPM_P2
2022/10/30 00:01:17;;;;;;;7.23;5.13;;;;;;;;;;5008086;28;20287;-53
2022/10/30 00:03:42;;;;;;;7.55;5.40;;;;;;;;;;5003484;28;20204;-54
2022/10/30 00:06:07;;;;;;;8.23;5.63;;;;;;;;;;5003010;28;20183;-54
2022/10/30 00:08:33;;;;;;;6.67;5.37;;;;;;;;;;5009319;28;20169;-52
2022/10/30 00:11:09;;;;;;;6.23;4.70;;;;;;;;;;5009223;28;20180;-52
2022/10/30 00:13:35;;;;;;;9.07;5.27;;;;;;;;;;5005327;28;20207;-54
2022/10/30 00:16:04;;;;;;;8.27;5.70;;;;;;;;;;5008050;28;20263;-54
2022/10/30 00:18:29;;;;;;;6.07;4.77;;;;;;;;;;5008511;28;20192;-53
2022/10/30 00:20:54;;;;;;;6.03;4.70;;;;;;;;;;5003434;28;20216;-54
2022/10/30 00:23:19;;;;;;;7.97;5.57;;;;;;;;;;5007344;28;20581;-52
2022/10/30 00:25:44;;;;;;;7.53;5.27;;;;;;;;;;4999049;28;20207;-54
2022/10/30 00:28:10;;;;;;;11.10;5.77;;;;;;;;;;5006584;28;20199;-54
2022/10/30 00:30:35;;;;;;;6.37;4.93;;;;;;;;;;5006061;28;20222;-54
2022/10/30 00:33:01;;;;;;;6.87;5.20;;;;;;;;;;5006753;28;20582;-53
2022/10/30 00:35:26;;;;;;;7.23;5.13;;;;;;;;;;5007900;28;20693;-53
2022/10/30 00:37:51;;;;;;;8.00;5.47;;;;;;;;;;5008192;28;20180;-52
2022/10/30 00:40:17;;;;;;;8.77;5.30;;;;;;;;;;5008023;28;20197;-54
2022/10/30 00:42:42;;;;;;;8.73;5.17;;;;;;;;;;5007717;28;20195;-53
2022/10/30 00:45:11;;;;;;;7.03;5.10;;;;;;;;;;5001903;28;20242;-54
2022/10/30 00:47:42;;;;;;;7.33;5.27;;;;;;;;;;5007991;28;20267;-51
2022/10/30 00:50:11;;;;;;;7.13;5.53;;;;;;;;;;5008226;28;20169;-53
2022/10/30 00:52:44;;;;;;;8.60;5.60;;;;;;;;;;5006923;28;20177;-52
2022/10/30 00:55:16;;;;;;;8.73;5.17;;;;;;;;;;4999700;28;20226;-52
2022/10/30 00:57:42;;;;;;;6.00;4.97;;;;;;;;;;5020861;28;20206;-52
2022/10/30 01:00:10;;;;;;;7.57;5.20;;;;;;;;;;5007354;28;20216;-54
2022/10/30 01:02:36;;;;;;;8.83;5.43;;;;;;;;;;5008336;28;20196;-54
2022/10/30 01:05:03;;;;;;;7.73;5.07;;;;;;;;;;5005197;28;20687;-51
2022/10/30 01:07:28;;;;;;;7.83;5.43;;;;;;;;;;5006011;28;20184;-50
2022/10/30 01:09:53;;;;;;;7.23;5.30;;;;;;;;;;5009047;28;20184;-53
2022/10/30 01:12:18;;;;;;;8.13;5.37;;;;;;;;;;5008465;28;20645;-51
2022/10/30 01:14:48;;;;;;;7.00;5.20;;;;;;;;;;5005341;28;20506;-56
2022/10/30 01:17:27;;;;;;;8.17;5.07;;;;;;;;;;5021490;28;20315;-53
2022/10/30 01:19:58;;;;;;;6.63;5.03;;;;;;;;;;5008415;28;20203;-52
2022/10/30 01:22:31;;;;;;;7.17;5.20;;;;;;;;;;5002332;28;20211;-51
2022/10/30 01:25:17;;;;;;;7.63;5.20;;;;;;;;;;5008005;28;20307;-50
2022/10/30 01:27:59;;;;;;;6.27;5.20;;;;;;;;;;5001925;28;20271;-52
2022/10/30 01:30:52;;;;;;;7.70;5.13;;;;;;;;;;5007159;28;20199;-54
2022/10/30 01:33:35;;;;;;;6.60;4.90;;;;;;;;;;5003978;28;20542;-50
2022/10/30 01:36:13;;;;;;;7.37;5.43;;;;;;;;;;5006291;28;20208;-56
2022/10/30 01:38:41;;;;;;;5.80;4.87;;;;;;;;;;5004316;28;20176;-54
2022/10/30 01:41:06;;;;;;;7.82;5.30;;;;;;;;;;5009611;28;20223;-53
2022/10/30 01:43:32;;;;;;;7.97;5.13;;;;;;;;;;5007507;28;20699;-50
2022/10/30 01:46:16;;;;;;;6.63;5.07;;;;;;;;;;5001187;28;20208;-54
2022/10/30 01:49:09;;;;;;;7.07;5.30;;;;;;;;;;5007401;28;20247;-51
2022/10/30 01:51:53;;;;;;;6.33;4.90;;;;;;;;;;5005499;28;20214;-52
2022/10/30 01:54:25;;;;;;;7.03;4.90;;;;;;;;;;4997450;28;20209;-53
2022/10/30 01:56:58;;;;;;;5.57;4.77;;;;;;;;;;5007353;28;20176;-52
2022/10/30 01:59:36;;;;;;;9.30;5.37;;;;;;;;;;5003792;28;20176;-55
2022/10/30 02:02:01;;;;;;;8.87;5.40;;;;;;;;;;4998312;28;20176;-52
2022/10/30 02:04:26;;;;;;;7.90;5.57;;;;;;;;;;5007372;28;20258;-56
2022/10/30 02:06:52;;;;;;;7.20;5.40;;;;;;;;;;5005413;28;20530;-56
2022/10/30 02:09:17;;;;;;;7.80;5.37;;;;;;;;;;5002329;28;20219;-54
2022/10/30 02:11:44;;;;;;;7.13;4.83;;;;;;;;;;5003254;28;20199;-52
2022/10/30 02:14:10;;;;;;;6.80;5.17;;;;;;;;;;4990236;28;20516;-51
2022/10/30 02:16:38;;;;;;;7.13;4.93;;;;;;;;;;5004245;28;20654;-54
2022/10/30 02:19:03;;;;;;;6.50;4.87;;;;;;;;;;5001788;28;20177;-52
2022/10/30 02:21:29;;;;;;;7.43;5.17;;;;;;;;;;5001143;28;20479;-50
2022/10/30 02:23:54;;;;;;;6.23;5.13;;;;;;;;;;5003814;28;20207;-51
2022/10/30 02:26:19;;;;;;;7.43;4.80;;;;;;;;;;4991990;28;20185;-57
2022/10/30 02:28:44;;;;;;;7.73;5.47;;;;;;;;;;4999818;28;20184;-50
2022/10/30 02:31:10;;;;;;;8.43;5.60;;;;;;;;;;5006099;28;20267;-53
2022/10/30 02:33:35;;;;;;;7.20;4.90;;;;;;;;;;4999673;28;20255;-57
2022/10/30 02:36:00;;;;;;;6.90;4.70;;;;;;;;;;4992597;28;20177;-52
2022/10/30 02:38:25;;;;;;;6.87;4.63;;;;;;;;;;4999988;28;20179;-55
2022/10/30 02:40:51;;;;;;;7.63;5.00;;;;;;;;;;5002250;28;20211;-50
2022/10/30 02:43:16;;;;;;;6.17;4.70;;;;;;;;;;5005334;28;20211;-55
2022/10/30 02:45:41;;;;;;;7.53;5.07;;;;;;;;;;5003707;28;20187;-50
2022/10/30 02:48:06;;;;;;;7.50;4.93;;;;;;;;;;5005226;28;20184;-52
2022/10/30 02:50:32;;;;;;;6.20;5.13;;;;;;;;;;5007653;28;20190;-53
2022/10/30 02:52:57;;;;;;;7.50;5.00;;;;;;;;;;4996766;28;20288;-53
2022/10/30 02:55:23;;;;;;;6.93;5.07;;;;;;;;;;5003911;28;20718;-53
2022/10/30 02:57:48;;;;;;;8.03;5.10;;;;;;;;;;5002583;28;20188;-54
2022/10/30 03:00:13;;;;;;;7.90;5.20;;;;;;;;;;5009385;28;20201;-54
2022/10/30 03:02:39;;;;;;;6.20;4.57;;;;;;;;;;5004374;28;20184;-52
2022/10/30 03:05:04;;;;;;;6.97;5.10;;;;;;;;;;5004066;28;20181;-50
2022/10/30 03:07:30;;;;;;;8.03;5.20;;;;;;;;;;5003033;28;20670;-54
2022/10/30 03:09:55;;;;;;;7.63;5.40;;;;;;;;;;5007524;28;20184;-54
2022/10/30 03:12:21;;;;;;;9.20;5.33;;;;;;;;;;5008682;28;20180;-54
2022/10/30 03:14:46;;;;;;;6.93;4.80;;;;;;;;;;5007089;28;20192;-54
2022/10/30 03:17:11;;;;;;;6.07;4.60;;;;;;;;;;5006100;28;20622;-53
2022/10/30 03:19:36;;;;;;;7.27;5.20;;;;;;;;;;5002772;28;20271;-54
2022/10/30 03:22:02;;;;;;;6.83;5.10;;;;;;;;;;5010320;28;20198;-53
2022/10/30 03:24:27;;;;;;;6.50;4.60;;;;;;;;;;5007000;28;20192;-54
2022/10/30 03:26:52;;;;;;;7.33;5.27;;;;;;;;;;5001478;28;20210;-54
2022/10/30 03:29:17;;;;;;;7.30;5.10;;;;;;;;;;5006080;28;20215;-54
2022/10/30 03:31:43;;;;;;;7.43;5.10;;;;;;;;;;5009373;28;20184;-53
2022/10/30 03:34:08;;;;;;;7.30;5.20;;;;;;;;;;5004741;28;20708;-52
2022/10/30 03:36:33;;;;;;;6.30;5.00;;;;;;;;;;5006538;28;20254;-54
2022/10/30 03:38:58;;;;;;;6.57;4.90;;;;;;;;;;5010077;28;20184;-52
2022/10/30 03:41:24;;;;;;;7.00;4.80;;;;;;;;;;5004417;28;20680;-54
2022/10/30 03:43:49;;;;;;;6.80;5.03;;;;;;;;;;5006303;28;20204;-54
2022/10/30 03:46:15;;;;;;;7.37;5.10;;;;;;;;;;5001109;28;20946;-54
2022/10/30 03:48:40;;;;;;;8.67;5.00;;;;;;;;;;5001503;28;20186;-54
2022/10/30 03:51:05;;;;;;;9.40;5.17;;;;;;;;;;5000823;28;20197;-51
2022/10/30 03:53:30;;;;;;;7.33;5.10;;;;;;;;;;5003286;28;20212;-55
2022/10/30 03:55:58;;;;;;;7.33;4.87;;;;;;;;;;5000792;28;20216;-54
2022/10/30 03:58:24;;;;;;;6.17;4.90;;;;;;;;;;5004261;28;20231;-55
2022/10/30 04:00:49;;;;;;;6.70;5.10;;;;;;;;;;4997194;28;20682;-54
2022/10/30 04:03:14;;;;;;;7.90;5.57;;;;;;;;;;4995854;28;20216;-55
2022/10/30 04:05:39;;;;;;;6.60;5.00;;;;;;;;;;5000979;28;20180;-55
2022/10/30 04:08:08;;;;;;;6.27;4.90;;;;;;;;;;5005829;28;20235;-57
2022/10/30 04:10:34;;;;;;;9.07;5.00;;;;;;;;;;5007912;28;20184;-54
2022/10/30 04:13:04;;;;;;;6.13;4.63;;;;;;;;;;4994202;28;20211;-57
2022/10/30 04:15:29;;;;;;;8.17;5.50;;;;;;;;;;5005878;28;20191;-57
2022/10/30 04:17:55;;;;;;;6.70;5.00;;;;;;;;;;5001125;28;20566;-54
2022/10/30 04:20:22;;;;;;;6.83;5.20;;;;;;;;;;5008180;28;20192;-54
2022/10/30 04:22:48;;;;;;;7.07;4.90;;;;;;;;;;5008282;28;20191;-55
2022/10/30 04:25:13;;;;;;;7.47;5.03;;;;;;;;;;5009360;28;20355;-52
2022/10/30 04:27:42;;;;;;;9.67;5.10;;;;;;;;;;5001934;28;20176;-54
2022/10/30 04:30:09;;;;;;;6.23;4.80;;;;;;;;;;4999620;28;20177;-52
2022/10/30 04:32:35;;;;;;;9.70;4.93;;;;;;;;;;5000508;28;20206;-53
2022/10/30 04:35:00;;;;;;;6.87;4.70;;;;;;;;;;5007187;28;20204;-54
2022/10/30 04:37:25;;;;;;;7.63;5.30;;;;;;;;;;5008014;28;20644;-54
2022/10/30 04:39:51;;;;;;;6.90;4.60;;;;;;;;;;4999006;28;20570;-54
2022/10/30 04:42:16;;;;;;;7.63;4.67;;;;;;;;;;4999268;28;20246;-54
2022/10/30 04:44:41;;;;;;;6.13;5.00;;;;;;;;;;5008035;28;20203;-53
2022/10/30 04:47:06;;;;;;;8.73;4.83;;;;;;;;;;4995278;28;20176;-53
2022/10/30 04:49:32;;;;;;;6.80;4.77;;;;;;;;;;4996565;28;20188;-54
2022/10/30 04:51:57;;;;;;;6.23;4.70;;;;;;;;;;4999096;28;20330;-53
2022/10/30 04:54:22;;;;;;;5.53;4.70;;;;;;;;;;5000551;28;20283;-53
2022/10/30 04:56:47;;;;;;;7.03;4.73;;;;;;;;;;5007631;28;20184;-54
2022/10/30 04:59:12;;;;;;;7.83;4.77;;;;;;;;;;5006234;28;20180;-54
2022/10/30 05:01:38;;;;;;;7.23;4.80;;;;;;;;;;5001240;28;20204;-54
2022/10/30 05:04:03;;;;;;;6.73;4.97;;;;;;;;;;4998048;28;20283;-53
2022/10/30 05:06:29;;;;;;;6.07;4.80;;;;;;;;;;5003835;28;20198;-53
2022/10/30 05:08:55;;;;;;;7.40;4.67;;;;;;;;;;4993620;28;20207;-53
2022/10/30 05:11:20;;;;;;;5.90;4.77;;;;;;;;;;4996473;28;20210;-54
2022/10/30 05:13:45;;;;;;;6.43;4.73;;;;;;;;;;5003162;28;20266;-54
2022/10/30 05:16:10;;;;;;;6.70;4.53;;;;;;;;;;4999726;28;20214;-53
2022/10/30 05:18:36;;;;;;;6.67;4.53;;;;;;;;;;5006103;28;20185;-53
2022/10/30 05:21:01;;;;;;;7.07;4.63;;;;;;;;;;5002421;28;20208;-53
2022/10/30 05:23:26;;;;;;;8.30;4.70;;;;;;;;;;5005013;28;20791;-54
2022/10/30 05:25:51;;;;;;;6.70;4.57;;;;;;;;;;5006228;28;20194;-53
2022/10/30 05:28:17;;;;;;;8.03;4.73;;;;;;;;;;5005981;28;20569;-54
2022/10/30 05:30:42;;;;;;;6.47;4.97;;;;;;;;;;5006237;28;20184;-54
2022/10/30 05:33:09;;;;;;;6.97;4.40;;;;;;;;;;5008172;28;20200;-53
2022/10/30 05:35:35;;;;;;;6.30;4.83;;;;;;;;;;5003782;28;20600;-52
2022/10/30 05:38:02;;;;;;;6.53;4.40;;;;;;;;;;4998780;28;20180;-53
2022/10/30 05:40:28;;;;;;;8.43;5.27;;;;;;;;;;5007822;28;20206;-54
2022/10/30 05:42:53;;;;;;;6.30;4.60;;;;;;;;;;4999790;28;20571;-54
2022/10/30 05:45:19;;;;;;;6.63;4.83;;;;;;;;;;5006790;28;20234;-54
2022/10/30 05:47:53;;;;;;;7.53;4.80;;;;;;;;;;4998143;28;20318;-54
2022/10/30 05:50:18;;;;;;;6.03;4.63;;;;;;;;;;5006025;28;20182;-53
2022/10/30 05:52:43;;;;;;;6.37;4.83;;;;;;;;;;5001279;28;20366;-52
2022/10/30 05:55:09;;;;;;;6.33;4.63;;;;;;;;;;5004776;28;20187;-53
2022/10/30 05:57:34;;;;;;;6.23;4.53;;;;;;;;;;5005999;28;20660;-54
2022/10/30 05:59:59;;;;;;;6.07;4.50;;;;;;;;;;4989000;28;20630;-53
2022/10/30 06:02:24;;;;;;;6.33;4.83;;;;;;;;;;5005730;28;20628;-54
2022/10/30 06:04:50;;;;;;;5.43;4.17;;;;;;;;;;5005524;28;20200;-53
2022/10/30 06:07:15;;;;;;;6.27;4.70;;;;;;;;;;5007638;28;20203;-53
2022/10/30 06:09:40;;;;;;;6.90;4.60;;;;;;;;;;5005427;28;20192;-53
2022/10/30 06:12:05;;;;;;;6.57;4.90;;;;;;;;;;5002197;28;20188;-54
2022/10/30 06:14:31;;;;;;;5.97;4.23;;;;;;;;;;5002616;28;20203;-52
2022/10/30 06:16:56;;;;;;;5.13;4.23;;;;;;;;;;4999699;28;20180;-53
2022/10/30 06:19:22;;;;;;;6.33;4.80;;;;;;;;;;5000438;28;20622;-54
2022/10/30 06:21:47;;;;;;;6.10;4.50;;;;;;;;;;5005357;28;20212;-54
2022/10/30 06:24:12;;;;;;;6.63;4.63;;;;;;;;;;4996130;28;20743;-54
2022/10/30 06:26:38;;;;;;;6.43;4.57;;;;;;;;;;4995281;28;20187;-53
2022/10/30 06:29:03;;;;;;;6.10;4.37;;;;;;;;;;4995873;28;20279;-54
2022/10/30 06:31:29;;;;;;;5.97;4.63;;;;;;;;;;5000037;28;20821;-54
2022/10/30 06:33:54;;;;;;;6.70;4.43;;;;;;;;;;5002446;28;20200;-54
2022/10/30 06:36:19;;;;;;;5.83;4.30;;;;;;;;;;5004663;28;20203;-56
2022/10/30 06:38:44;;;;;;;6.47;4.63;;;;;;;;;;5008837;28;20723;-53
2022/10/30 06:41:10;;;;;;;6.23;4.63;;;;;;;;;;5005196;28;20279;-56
2022/10/30 06:43:35;;;;;;;6.63;4.23;;;;;;;;;;5003585;28;20201;-52
2022/10/30 06:46:00;;;;;;;6.03;4.37;;;;;;;;;;5007356;28;20310;-51
2022/10/30 06:48:25;;;;;;;6.90;4.57;;;;;;;;;;5006658;28;20546;-51
2022/10/30 06:50:55;;;;;;;9.53;4.53;;;;;;;;;;5005982;28;20226;-54
2022/10/30 06:53:20;;;;;;;6.70;4.50;;;;;;;;;;5007599;28;20210;-57
2022/10/30 06:55:59;;;;;;;7.27;4.40;;;;;;;;;;4998469;28;20184;-54
2022/10/30 06:58:25;;;;;;;8.30;4.70;;;;;;;;;;5002155;28;20265;-53
2022/10/30 07:00:50;;;;;;;6.50;4.93;;;;;;;;;;5006750;28;20293;-54
2022/10/30 07:03:15;;;;;;;5.03;4.00;;;;;;;;;;5001909;28;20208;-53
2022/10/30 07:05:40;;;;;;;6.07;4.17;;;;;;;;;;5004124;28;20264;-53
2022/10/30 07:08:06;;;;;;;5.37;4.20;;;;;;;;;;5001147;28;20474;-53
2022/10/30 07:10:31;;;;;;;5.70;4.37;;;;;;;;;;5007077;28;20180;-53
2022/10/30 07:12:57;;;;;;;5.33;4.37;;;;;;;;;;5005355;28;20278;-53
2022/10/30 07:15:23;;;;;;;8.47;4.50;;;;;;;;;;5002758;28;20569;-54
2022/10/30 07:17:56;;;;;;;8.20;4.50;;;;;;;;;;4997308;28;20480;-53
2022/10/30 07:20:22;;;;;;;6.67;4.27;;;;;;;;;;5006422;28;20200;-53
2022/10/30 07:22:47;;;;;;;5.30;4.30;;;;;;;;;;5004098;28;20414;-53
2022/10/30 07:25:13;;;;;;;5.63;4.43;;;;;;;;;;5006301;28;20176;-54
2022/10/30 07:27:43;;;;;;;5.15;4.30;;;;;;;;;;5004989;28;20177;-54
2022/10/30 07:30:09;;;;;;;5.00;4.25;;;;;;;;;;5004370;28;20231;-54
2022/10/30 07:32:35;;;;;;;4.97;4.28;;;;;;;;;;5007091;28;20199;-53
2022/10/30 07:35:00;;;;;;;4.63;4.05;;;;;;;;;;4994623;28;20180;-54
2022/10/30 07:37:28;;;;;;;5.97;3.90;;;;;;;;;;5003059;28;20247;-54
2022/10/30 07:39:53;;;;;;;5.30;4.23;;;;;;;;;;5004006;28;20184;-54
2022/10/30 07:42:18;;;;;;;5.53;4.10;;;;;;;;;;5004221;28;20173;-55
2022/10/30 07:44:44;;;;;;;5.25;4.18;;;;;;;;;;5007689;28;20204;-54
2022/10/30 07:47:09;;;;;;;5.90;4.32;;;;;;;;;;5011137;28;20177;-54
2022/10/30 07:49:34;;;;;;;5.63;4.30;;;;;;;;;;5007300;28;20238;-54
2022/10/30 07:51:59;;;;;;;6.20;4.13;;;;;;;;;;5005179;28;20804;-54
2022/10/30 07:54:25;;;;;;;7.22;3.97;;;;;;;;;;5003432;28;20198;-59
2022/10/30 07:56:50;;;;;;;5.30;3.90;;;;;;;;;;4999088;28;20188;-60
2022/10/30 07:59:15;;;;;;;5.78;4.20;;;;;;;;;;5009844;28;20169;-59
2022/10/30 08:01:40;;;;;;;4.88;3.88;;;;;;;;;;5008475;28;20291;-59
2022/10/30 08:04:05;;;;;;;6.33;4.00;;;;;;;;;;5009092;28;20217;-58
2022/10/30 08:06:31;;;;;;;4.88;4.00;;;;;;;;;;5012220;28;20180;-58
2022/10/30 08:08:56;;;;;;;6.35;4.18;;;;;;;;;;5011257;28;20176;-59
2022/10/30 08:11:21;;;;;;;6.90;3.92;;;;;;;;;;5006022;28;20176;-60
2022/10/30 08:13:46;;;;;;;9.93;5.47;;;;;;;;;;5010686;28;20200;-60
2022/10/30 08:16:12;;;;;;;9.48;5.90;;;;;;;;;;5005928;28;20644;-60
2022/10/30 08:18:40;;;;;;;7.35;6.35;;;;;;;;;;5001546;28;20191;-60
2022/10/30 08:21:05;;;;;;;8.20;6.15;;;;;;;;;;5003695;28;20193;-60
2022/10/30 08:23:30;;;;;;;8.97;6.37;;;;;;;;;;5010908;28;20196;-60
2022/10/30 08:25:59;;;;;;;9.23;6.53;;;;;;;;;;5008136;28;20222;-58
2022/10/30 08:28:24;;;;;;;8.15;5.93;;;;;;;;;;5009641;28;20192;-58
2022/10/30 08:30:49;;;;;;;9.23;5.93;;;;;;;;;;5001332;28;20637;-58
2022/10/30 08:33:15;;;;;;;8.35;5.60;;;;;;;;;;5009008;28;20241;-59
2022/10/30 08:35:51;;;;;;;7.25;5.28;;;;;;;;;;5006747;28;20259;-60
2022/10/30 08:38:17;;;;;;;8.18;6.07;;;;;;;;;;5009438;28;20592;-59
2022/10/30 08:40:42;;;;;;;7.30;5.30;;;;;;;;;;5003701;28;20192;-60
2022/10/30 08:43:08;;;;;;;6.97;5.27;;;;;;;;;;5009744;28;20204;-59
2022/10/30 08:45:33;;;;;;;7.97;5.30;;;;;;;;;;5011149;28;20184;-59
2022/10/30 08:48:00;;;;;;;6.68;4.80;;;;;;;;;;5009172;28;20199;-58
2022/10/30 08:50:25;;;;;;;6.85;4.70;;;;;;;;;;5005829;28;20180;-58
2022/10/30 08:52:51;;;;;;;6.10;5.28;;;;;;;;;;5007489;28;20196;-58
2022/10/30 08:55:16;;;;;;;7.00;5.00;;;;;;;;;;5006926;28;20168;-58
2022/10/30 08:57:41;;;;;;;6.60;4.85;;;;;;;;;;5001438;28;20270;-58
2022/10/30 09:00:07;;;;;;;7.28;4.72;;;;;;;;;;5008291;28;20204;-58
2022/10/30 09:02:34;;;;;;;7.65;5.07;;;;;;;;;;5007403;28;20187;-60
2022/10/30 09:04:59;;;;;;;7.65;4.90;;;;;;;;;;5007192;28;20187;-51
2022/10/30 09:07:24;;;;;;;6.63;4.53;;;;;;;;;;5008113;28;20168;-53
2022/10/30 09:09:49;;;;;;;6.40;4.78;;;;;;;;;;5009104;28;20636;-54
2022/10/30 09:12:15;;;;;;;6.50;5.07;;;;;;;;;;5006036;28;20624;-52
2022/10/30 09:14:41;;;;;;;8.30;4.80;;;;;;;;;;5005716;28;20204;-53
2022/10/30 09:17:06;;;;;;;6.25;4.50;;;;;;;;;;5008655;28;20263;-52
2022/10/30 09:19:31;;;;;;;6.45;4.57;;;;;;;;;;5010327;28;20206;-49
2022/10/30 09:21:56;;;;;;;6.50;4.55;;;;;;;;;;5009517;28;20572;-54
2022/10/30 09:24:22;;;;;;;6.53;4.63;;;;;;;;;;5010898;28;20200;-49
2022/10/30 09:26:47;;;;;;;7.03;4.63;;;;;;;;;;5009445;28;20184;-53
2022/10/30 09:29:12;;;;;;;5.53;4.32;;;;;;;;;;5011113;28;20188;-51
2022/10/30 09:31:37;;;;;;;6.07;4.57;;;;;;;;;;5008198;28;20212;-53
2022/10/30 09:34:03;;;;;;;5.35;4.63;;;;;;;;;;5009258;28;20703;-56
2022/10/30 09:36:28;;;;;;;5.72;4.32;;;;;;;;;;5010509;28;20180;-50
2022/10/30 09:38:54;;;;;;;5.82;4.38;;;;;;;;;;5008915;28;20207;-56
2022/10/30 09:41:52;;;;;;;5.13;4.10;;;;;;;;;;5007176;28;20289;-53
2022/10/30 09:44:51;;;;;;;5.60;4.20;;;;;;;;;;5000219;28;20238;-52
2022/10/30 09:47:27;;;;;;;6.75;4.20;;;;;;;;;;4999445;28;20180;-54
2022/10/30 09:50:13;;;;;;;4.82;4.03;;;;;;;;;;5006411;28;20188;-54
2022/10/30 09:53:00;;;;;;;6.07;4.60;;;;;;;;;;5005086;28;20184;-54
2022/10/30 09:55:32;;;;;;;6.35;4.78;;;;;;;;;;5005316;28;20218;-54
2022/10/30 09:58:05;;;;;;;5.72;4.57;;;;;;;;;;5007086;28;20185;-54
2022/10/30 10:00:37;;;;;;;5.43;4.30;;;;;;;;;;5006550;28;20282;-54
2022/10/30 10:03:42;;;;;;;5.97;4.38;;;;;;;;;;5008448;28;20188;-54
2022/10/30 10:06:16;;;;;;;6.03;4.50;;;;;;;;;;5005525;28;20534;-54
2022/10/30 10:08:45;;;;;;;7.22;5.68;;;;;;;;;;5008166;28;20180;-58
2022/10/30 10:11:15;;;;;;;7.28;5.18;;;;;;;;;;5008286;28;20192;-55
2022/10/30 10:13:48;;;;;;;7.70;5.13;;;;;;;;;;5006745;28;20200;-53
2022/10/30 10:16:18;;;;;;;7.53;5.60;;;;;;;;;;5002406;28;20259;-57
2022/10/30 10:18:51;;;;;;;5.85;4.70;;;;;;;;;;5007834;28;20181;-54
2022/10/30 10:21:28;;;;;;;6.07;4.68;;;;;;;;;;5009284;28;20273;-54
2022/10/30 10:23:59;;;;;;;6.78;4.68;;;;;;;;;;5008257;28;20192;-54
2022/10/30 10:26:35;;;;;;;5.03;4.10;;;;;;;;;;5008679;28;20176;-53
2022/10/30 10:29:03;;;;;;;6.72;4.13;;;;;;;;;;4990314;28;20188;-54
2022/10/30 10:32:02;;;;;;;5.88;4.70;;;;;;;;;;5006957;28;20184;-56
2022/10/30 10:34:33;;;;;;;5.13;4.45;;;;;;;;;;4996183;28;20195;-54
2022/10/30 10:37:04;;;;;;;4.82;4.20;;;;;;;;;;5008699;28;20184;-56
2022/10/30 10:40:12;;;;;;;5.75;4.35;;;;;;;;;;5008444;28;20168;-50
2022/10/30 10:42:43;;;;;;;6.38;4.53;;;;;;;;;;4997979;28;20200;-50
2022/10/30 10:45:23;;;;;;;5.60;4.22;;;;;;;;;;5002941;28;20168;-53
2022/10/30 10:48:17;;;;;;;5.82;4.43;;;;;;;;;;5007362;28;20632;-53
2022/10/30 10:50:57;;;;;;;5.32;4.00;;;;;;;;;;5006480;28;20245;-52
2022/10/30 10:53:31;;;;;;;5.03;4.15;;;;;;;;;;5003973;28;20188;-53
2022/10/30 10:55:58;;;;;;;5.32;4.18;;;;;;;;;;5008335;28;20167;-53
2022/10/30 10:58:31;;;;;;;4.82;4.05;;;;;;;;;;5009235;28;20187;-54
2022/10/30 11:00:57;;;;;;;4.93;3.97;;;;;;;;;;5008527;28;20211;-53
2022/10/30 11:03:56;;;;;;;5.90;4.43;;;;;;;;;;5009141;28;20279;-54
2022/10/30 11:06:26;;;;;;;4.45;3.72;;;;;;;;;;5002711;28;20187;-54
2022/10/30 11:09:11;;;;;;;4.75;3.97;;;;;;;;;;5006232;28;20338;-54
2022/10/30 11:11:36;;;;;;;5.72;3.90;;;;;;;;;;5008783;28;20181;-56
2022/10/30 11:14:15;;;;;;;5.82;4.70;;;;;;;;;;5005845;28;20208;-54
2022/10/30 11:17:03;;;;;;;4.88;3.95;;;;;;;;;;5007556;28;20184;-56
2022/10/30 11:19:30;;;;;;;6.00;3.95;;;;;;;;;;5011233;28;20583;-54
2022/10/30 11:21:56;;;;;;;5.53;3.85;;;;;;;;;;5009798;28;20205;-54
2022/10/30 11:24:32;;;;;;;4.55;4.10;;;;;;;;;;5011013;28;20668;-54
2022/10/30 11:27:18;;;;;;;4.82;3.88;;;;;;;;;;5011420;28;20176;-54
2022/10/30 11:29:48;;;;;;;5.43;4.13;;;;;;;;;;5009902;28;20267;-55
2022/10/30 11:32:19;;;;;;;4.53;3.75;;;;;;;;;;5010972;28;20175;-54
2022/10/30 11:34:44;;;;;;;4.40;3.60;;;;;;;;;;5011526;28;20207;-54
2022/10/30 11:37:29;;;;;;;5.13;4.30;;;;;;;;;;5013258;28;20183;-55
2022/10/30 11:40:05;;;;;;;4.90;3.90;;;;;;;;;;5010426;28;20184;-53
2022/10/30 11:42:31;;;;;;;4.57;3.75;;;;;;;;;;5007666;28;20653;-54
2022/10/30 11:44:56;;;;;;;4.43;3.78;;;;;;;;;;5012356;28;20204;-53
2022/10/30 11:47:30;;;;;;;4.38;3.83;;;;;;;;;;5012662;28;20255;-51
2022/10/30 11:50:01;;;;;;;4.55;3.90;;;;;;;;;;5009415;28;20180;-53
2022/10/30 11:52:26;;;;;;;4.60;3.70;;;;;;;;;;5009836;28;20169;-54
2022/10/30 11:54:55;;;;;;;3.92;3.40;;;;;;;;;;5009369;28;20236;-53
2022/10/30 11:57:22;;;;;;;5.43;3.78;;;;;;;;;;5010652;28;20184;-51
2022/10/30 11:59:50;;;;;;;5.63;4.55;;;;;;;;;;5016679;28;20275;-55
2022/10/30 12:02:28;;;;;;;4.78;4.00;;;;;;;;;;5018205;28;20218;-54
2022/10/30 12:04:54;;;;;;;4.60;3.88;;;;;;;;;;5011894;28;20679;-56
2022/10/30 12:07:28;;;;;;;3.88;3.47;;;;;;;;;;5007679;28;20255;-56
2022/10/30 12:09:53;;;;;;;5.70;4.20;;;;;;;;;;5011155;28;20645;-51
2022/10/30 12:12:31;;;;;;;4.50;3.78;;;;;;;;;;5010646;28;20188;-53
2022/10/30 12:15:13;;;;;;;4.35;3.95;;;;;;;;;;5008715;28;20196;-50
2022/10/30 12:17:39;;;;;;;5.10;4.07;;;;;;;;;;5009689;28;20624;-52
2022/10/30 12:20:05;;;;;;;5.22;4.10;;;;;;;;;;5012229;28;20179;-54
2022/10/30 12:22:32;;;;;;;4.65;3.63;;;;;;;;;;5010661;28;20199;-54
2022/10/30 12:25:00;;;;;;;4.65;3.88;;;;;;;;;;5011211;28;20176;-57
2022/10/30 12:27:26;;;;;;;4.03;3.60;;;;;;;;;;5006123;28;20169;-55
2022/10/30 12:30:12;;;;;;;5.07;4.30;;;;;;;;;;4989645;28;20203;-54
2022/10/30 12:32:42;;;;;;;4.80;4.07;;;;;;;;;;5010220;28;20172;-53
2022/10/30 12:35:33;;;;;;;5.70;4.20;;;;;;;;;;5004125;28;20650;-53
2022/10/30 12:37:59;;;;;;;6.18;4.80;;;;;;;;;;5006895;28;20495;-54
2022/10/30 12:40:35;;;;;;;7.85;4.72;;;;;;;;;;5012606;28;20667;-54
2022/10/30 12:43:06;;;;;;;6.50;4.78;;;;;;;;;;5009811;28;20188;-56
2022/10/30 12:45:40;;;;;;;8.48;5.28;;;;;;;;;;5010875;28;20176;-54
2022/10/30 12:48:29;;;;;;;4.55;3.88;;;;;;;;;;5002654;28;20188;-53
2022/10/30 12:51:18;;;;;;;4.65;3.90;;;;;;;;;;5008879;28;20180;-54
2022/10/30 12:53:57;;;;;;;5.13;4.38;;;;;;;;;;5009874;28;20242;-54
2022/10/30 12:56:28;;;;;;;4.68;4.00;;;;;;;;;;5009579;28;20667;-53
2022/10/30 12:59:02;;;;;;;4.05;3.60;;;;;;;;;;5009052;28;20180;-53
2022/10/30 13:01:53;;;;;;;5.15;3.40;;;;;;;;;;5009236;28;20196;-53
2022/10/30 13:04:21;;;;;;;5.75;4.40;;;;;;;;;;5006550;28;20205;-54
2022/10/30 13:06:48;;;;;;;5.32;3.83;;;;;;;;;;5010054;28;20221;-54
2022/10/30 13:09:16;;;;;;;5.50;3.75;;;;;;;;;;5008640;28;20665;-54
2022/10/30 13:11:47;;;;;;;4.40;3.60;;;;;;;;;;5008167;28;20856;-54
2022/10/30 13:14:16;;;;;;;5.03;3.75;;;;;;;;;;5002119;28;20232;-53
2022/10/30 13:16:41;;;;;;;4.10;3.58;;;;;;;;;;5006109;28;20180;-54
2022/10/30 13:19:11;;;;;;;5.15;4.32;;;;;;;;;;5005003;28;20178;-54
2022/10/30 13:22:00;;;;;;;5.70;4.15;;;;;;;;;;5009092;28;20663;-54
2022/10/30 13:24:47;;;;;;;3.88;3.40;;;;;;;;;;5008641;28;20677;-54
2022/10/30 13:27:40;;;;;;;4.60;4.00;;;;;;;;;;5012167;28;20168;-54
2022/10/30 13:30:13;;;;;;;6.00;3.95;;;;;;;;;;4993117;28;20676;-54
2022/10/30 13:32:57;;;;;;;4.57;3.58;;;;;;;;;;5004700;28;20227;-54
2022/10/30 13:36:01;;;;;;;4.20;3.38;;;;;;;;;;5003086;28;20694;-52
2022/10/30 13:38:29;;;;;;;4.25;3.75;;;;;;;;;;5004926;28;20175;-54
2022/10/30 13:41:06;;;;;;;5.25;3.67;;;;;;;;;;5007368;28;20192;-53
2022/10/30 13:43:48;;;;;;;3.90;3.40;;;;;;;;;;4999344;28;20196;-53
2022/10/30 13:46:28;;;;;;;5.53;3.55;;;;;;;;;;5003280;28;20168;-51
2022/10/30 13:48:53;;;;;;;5.68;4.10;;;;;;;;;;5003538;28;20557;-54
2022/10/30 13:51:33;;;;;;;6.38;4.28;;;;;;;;;;5000152;28;20172;-54
2022/10/30 13:54:18;;;;;;;6.03;4.25;;;;;;;;;;5008878;28;20678;-50
2022/10/30 13:56:45;;;;;;;6.05;3.83;;;;;;;;;;5007983;28;20262;-54
2022/10/30 13:59:37;;;;;;;4.50;3.53;;;;;;;;;;5006257;28;20176;-54
2022/10/30 14:02:07;;;;;;;4.43;3.75;;;;;;;;;;5008341;28;20238;-54
2022/10/30 14:04:36;;;;;;;6.30;4.47;;;;;;;;;;5009612;28;20192;-53
2022/10/30 14:07:21;;;;;;;5.57;4.00;;;;;;;;;;5007183;28;20173;-53
2022/10/30 14:09:55;;;;;;;4.93;3.72;;;;;;;;;;5006703;28;20180;-51
2022/10/30 14:12:50;;;;;;;4.32;3.38;;;;;;;;;;5006812;28;20255;-53
2022/10/30 14:15:26;;;;;;;5.80;3.97;;;;;;;;;;4999151;28;20184;-54
2022/10/30 14:18:10;;;;;;;3.90;3.35;;;;;;;;;;5000060;28;20207;-54
2022/10/30 14:20:36;;;;;;;4.22;3.42;;;;;;;;;;5008545;28;20208;-53
2022/10/30 14:23:11;;;;;;;4.07;3.60;;;;;;;;;;5009385;28;20199;-54
2022/10/30 14:25:36;;;;;;;4.70;3.90;;;;;;;;;;5009672;28;20274;-52
2022/10/30 14:28:02;;;;;;;4.13;3.38;;;;;;;;;;5008059;28;20699;-53
2022/10/30 14:30:28;;;;;;;4.13;3.53;;;;;;;;;;5007620;28;20169;-54
2022/10/30 14:32:53;;;;;;;3.95;3.22;;;;;;;;;;5003751;28;20208;-54
2022/10/30 14:35:34;;;;;;;4.18;3.50;;;;;;;;;;4999166;28;20184;-54
2022/10/30 14:38:05;;;;;;;5.03;3.88;;;;;;;;;;5006003;28;20750;-52
2022/10/30 14:40:40;;;;;;;5.75;4.43;;;;;;;;;;4994292;28;20597;-51
2022/10/30 14:43:17;;;;;;;5.35;3.92;;;;;;;;;;4997203;28;20617;-50
2022/10/30 14:45:48;;;;;;;7.85;4.60;;;;;;;;;;5004889;28;20226;-51
2022/10/30 14:48:47;;;;;;;6.03;4.60;;;;;;;;;;4999891;28;20176;-51
2022/10/30 14:51:22;;;;;;;7.07;4.63;;;;;;;;;;5005481;28;20283;-52
2022/10/30 14:54:09;;;;;;;6.85;5.18;;;;;;;;;;5011200;28;20199;-49
2022/10/30 14:56:48;;;;;;;6.35;5.00;;;;;;;;;;5005228;28;20684;-55
2022/10/30 14:59:14;;;;;;;5.70;4.78;;;;;;;;;;5006788;28;20175;-53